createdAt,value
2022-11-10T00:00:30.899Z,100444.22
2022-11-10T00:03:02.195Z,100448.94
2022-11-10T00:05:30.608Z,100439.88
2022-11-10T00:07:59.302Z,100445.59
2022-11-10T00:10:28.804Z,100446.75
2022-11-10T00:13:00.216Z,100445.84
2022-11-10T00:15:45.718Z,100437.50
2022-11-10T00:18:13.568Z,100435.00
2022-11-10T00:20:41.700Z,100442.91
2022-11-10T00:23:09.686Z,100437.22
2022-11-10T00:25:39.023Z,100437.03
2022-11-10T00:28:06.898Z,100441.03
2022-11-10T00:30:38.599Z,100439.94
2022-11-10T00:33:06.476Z,100433.34
2022-11-10T00:35:34.312Z,100436.44
2022-11-10T00:38:02.311Z,100430.78
2022-11-10T00:40:30.188Z,100429.09
2022-11-10T00:42:59.552Z,100421.22
2022-11-10T00:45:27.462Z,100426.44
2022-11-10T00:47:55.297Z,100435.41
2022-11-10T00:50:23.146Z,100427.19
2022-11-10T00:52:51.029Z,100425.75
2022-11-10T00:55:19.073Z,100427.00
2022-11-10T00:57:46.969Z,100421.28
2022-11-10T01:00:16.683Z,100423.69
2022-11-10T01:02:44.575Z,100421.53
2022-11-10T01:05:12.436Z,100430.50
2022-11-10T01:07:40.339Z,100425.28
2022-11-10T01:10:09.397Z,100423.88
2022-11-10T01:12:37.282Z,100422.56
2022-11-10T01:15:05.906Z,100411.88
2022-11-10T01:17:35.153Z,100416.22
2022-11-10T01:20:04.788Z,100408.66
2022-11-10T01:22:32.721Z,100419.06
2022-11-10T01:25:00.924Z,100420.22
2022-11-10T01:27:28.811Z,100424.31
2022-11-10T01:29:56.687Z,100423.19
2022-11-10T01:32:24.546Z,100416.91
2022-11-10T01:34:53.829Z,100412.03
2022-11-10T01:37:21.714Z,100417.34
2022-11-10T01:39:49.635Z,100394.19
2022-11-10T01:42:23.414Z,100416.16
2022-11-10T01:45:24.348Z,100418.44
2022-11-10T01:47:54.990Z,100415.47
2022-11-10T01:50:27.588Z,100416.88
2022-11-10T01:53:01.068Z,100411.13
2022-11-10T01:55:30.106Z,100410.44
2022-11-10T01:57:58.511Z,100414.31
2022-11-10T02:00:26.600Z,100420.69
2022-11-10T02:03:02.287Z,100412.81
2022-11-10T02:05:32.682Z,100408.91
2022-11-10T02:08:04.167Z,100411.50
2022-11-10T02:10:32.107Z,100407.47
2022-11-10T02:13:00.005Z,100413.56
2022-11-10T02:15:27.987Z,100416.25
2022-11-10T02:17:55.864Z,100408.53
2022-11-10T02:20:23.851Z,100414.47
2022-11-10T02:22:53.125Z,100413.69
2022-11-10T02:25:22.900Z,100415.69
2022-11-10T02:27:50.857Z,100418.75
2022-11-10T02:30:19.893Z,100405.44
2022-11-10T02:32:49.784Z,100424.53
2022-11-10T02:35:17.750Z,100415.28
2022-11-10T02:37:45.612Z,100426.69
2022-11-10T02:40:14.911Z,100429.88
2022-11-10T02:42:42.801Z,100431.41
2022-11-10T02:45:11.089Z,100437.09
2022-11-10T02:47:38.930Z,100434.19
2022-11-10T02:50:07.509Z,100437.94
2022-11-10T02:52:35.387Z,100439.63
2022-11-10T02:55:03.254Z,100425.56
2022-11-10T02:57:32.488Z,100441.31
2022-11-10T03:00:00.685Z,100445.22
2022-11-10T03:02:32.104Z,100444.66
2022-11-10T03:05:01.016Z,100444.84
2022-11-10T03:07:28.934Z,100435.88
2022-11-10T03:09:56.807Z,100445.69
2022-11-10T03:12:24.672Z,100440.94
2022-11-10T03:14:53.880Z,100355.19
2022-11-10T03:17:21.738Z,100433.44
2022-11-10T03:19:50.270Z,100445.50
2022-11-10T03:22:18.277Z,100438.09
2022-11-10T03:24:46.145Z,100442.44
2022-11-10T03:27:14.060Z,100443.19
2022-11-10T03:29:41.923Z,100442.91
2022-11-10T03:32:11.170Z,100433.09
2022-11-10T03:34:39.125Z,100426.69
2022-11-10T03:37:07.050Z,100442.66
2022-11-10T03:39:34.903Z,100435.63
2022-11-10T03:42:02.960Z,100440.69
2022-11-10T03:44:30.802Z,100435.88
2022-11-10T03:46:58.693Z,100440.28
2022-11-10T03:49:27.926Z,100434.16
2022-11-10T03:51:55.802Z,100426.81
2022-11-10T03:54:24.089Z,100435.00
2022-11-10T03:56:51.962Z,100436.91
2022-11-10T03:59:19.861Z,100382.88
2022-11-10T04:01:47.782Z,100438.97
2022-11-10T04:04:29.713Z,100433.00
2022-11-10T04:07:18.784Z,100434.75
2022-11-10T04:09:46.868Z,100442.56
2022-11-10T04:12:32.335Z,100437.94
2022-11-10T04:15:17.848Z,100442.69
2022-11-10T04:17:50.190Z,100442.16
2022-11-10T04:20:18.160Z,100438.06
2022-11-10T04:23:04.911Z,100441.13
2022-11-10T04:25:53.374Z,100437.09
2022-11-10T04:28:21.221Z,100448.38
2022-11-10T04:30:49.104Z,100442.97
2022-11-10T04:33:16.988Z,100445.06
2022-11-10T04:35:44.855Z,100450.84
2022-11-10T04:38:14.108Z,100452.88
2022-11-10T04:40:42.031Z,100451.94
2022-11-10T04:43:09.944Z,100450.16
2022-11-10T04:45:37.802Z,100450.59
2022-11-10T04:48:05.958Z,100467.16
2022-11-10T04:50:33.903Z,100460.97
2022-11-10T04:53:03.183Z,100463.06
2022-11-10T04:55:32.418Z,100464.03
2022-11-10T04:58:00.519Z,100473.91
2022-11-10T05:00:28.452Z,100464.75
2022-11-10T05:02:56.412Z,100463.53
2022-11-10T05:05:24.268Z,100468.47
2022-11-10T05:07:52.160Z,100463.03
2022-11-10T05:10:20.138Z,100464.31
2022-11-10T05:12:49.363Z,100463.22
2022-11-10T05:15:17.325Z,100439.31
2022-11-10T05:17:49.475Z,100465.41
2022-11-10T05:20:17.837Z,100480.00
2022-11-10T05:23:07.272Z,100463.34
2022-11-10T05:25:36.321Z,100473.72
2022-11-10T05:28:06.545Z,100465.47
2022-11-10T05:30:35.625Z,100481.13
2022-11-10T05:33:04.137Z,100489.84
2022-11-10T05:35:32.046Z,100479.63
2022-11-10T05:38:00.373Z,100494.31
2022-11-10T05:40:28.927Z,100492.94
2022-11-10T05:42:57.055Z,100501.56
2022-11-10T05:45:27.885Z,100503.00
2022-11-10T05:47:56.073Z,100501.19
2022-11-10T05:50:25.560Z,100496.25
2022-11-10T05:52:54.950Z,100513.97
2022-11-10T05:55:25.598Z,100517.44
2022-11-10T05:57:54.461Z,100526.84
2022-11-10T06:00:33.109Z,100525.50
2022-11-10T06:03:09.886Z,100534.66
2022-11-10T06:05:38.483Z,100539.84
2022-11-10T06:08:07.505Z,100538.19
2022-11-10T06:10:36.530Z,100542.59
2022-11-10T06:13:04.995Z,100538.75
2022-11-10T06:15:34.454Z,100546.22
2022-11-10T06:18:02.665Z,100520.94
2022-11-10T06:20:30.950Z,100544.44
2022-11-10T06:23:03.830Z,100538.78
2022-11-10T06:25:33.595Z,100548.34
2022-11-10T06:28:02.403Z,100555.31
2022-11-10T06:30:31.562Z,100552.47
2022-11-10T06:33:00.916Z,100560.66
2022-11-10T06:35:29.435Z,100556.75
2022-11-10T06:38:02.268Z,100558.56
2022-11-10T06:40:31.553Z,100554.44
2022-11-10T06:43:02.975Z,100554.19
2022-11-10T06:45:31.074Z,100569.28
2022-11-10T06:48:04.903Z,100564.25
2022-11-10T06:50:33.059Z,100564.66
2022-11-10T06:53:01.990Z,100570.41
2022-11-10T06:55:30.700Z,100562.50
2022-11-10T06:57:58.982Z,100569.25
2022-11-10T07:00:29.616Z,100561.69
2022-11-10T07:03:03.909Z,100563.75
2022-11-10T07:05:33.891Z,100557.19
2022-11-10T07:08:05.231Z,100446.91
2022-11-10T07:10:33.861Z,100569.53
2022-11-10T07:13:03.607Z,100560.06
2022-11-10T07:15:33.524Z,100570.28
2022-11-10T07:18:03.700Z,100570.41
2022-11-10T07:20:32.113Z,100560.50
2022-11-10T07:23:00.899Z,100567.34
2022-11-10T07:25:29.608Z,100549.56
2022-11-10T07:27:58.327Z,100560.63
2022-11-10T07:30:26.674Z,100566.59
2022-11-10T07:33:03.698Z,100565.53
2022-11-10T07:35:32.619Z,100560.53
2022-11-10T07:38:04.171Z,100573.41
2022-11-10T07:40:32.236Z,100569.16
2022-11-10T07:43:00.373Z,100563.94
2022-11-10T07:45:28.485Z,100569.59
2022-11-10T07:48:00.674Z,100569.97
2022-11-10T07:50:30.325Z,100574.53
2022-11-10T07:53:04.665Z,100571.81
2022-11-10T07:55:32.525Z,100578.81
2022-11-10T07:58:00.812Z,100543.81
2022-11-10T08:00:29.168Z,100564.31
2022-11-10T08:03:02.696Z,100566.22
2022-11-10T08:05:32.253Z,100567.94
2022-11-10T08:08:01.101Z,100570.03
2022-11-10T08:10:29.888Z,100562.69
2022-11-10T08:12:58.614Z,100569.72
2022-11-10T08:15:28.145Z,100567.75
2022-11-10T08:17:59.637Z,100557.59
2022-11-10T08:20:27.561Z,100573.09
2022-11-10T08:23:00.603Z,100575.00
2022-11-10T08:25:34.183Z,100574.09
2022-11-10T08:28:04.992Z,100572.41
2022-11-10T08:30:33.338Z,100576.28
2022-11-10T08:33:02.837Z,100577.84
2022-11-10T08:35:32.362Z,100584.63
2022-11-10T08:38:09.479Z,100583.00
2022-11-10T08:40:38.082Z,100581.63
2022-11-10T08:43:07.649Z,100577.84
2022-11-10T08:45:35.959Z,100584.53
2022-11-10T08:48:05.627Z,100580.13
2022-11-10T08:50:33.998Z,100573.16
2022-11-10T08:53:04.679Z,100570.34
2022-11-10T08:55:32.591Z,100570.53
2022-11-10T08:58:02.095Z,100557.34
2022-11-10T09:00:30.592Z,100565.53
2022-11-10T09:03:03.900Z,100565.13
2022-11-10T09:05:31.886Z,100566.78
2022-11-10T09:07:59.826Z,100563.22
2022-11-10T09:10:29.138Z,100561.56
2022-11-10T09:13:00.369Z,100559.06
2022-11-10T09:15:28.769Z,100559.50
2022-11-10T09:17:59.725Z,100558.31
2022-11-10T09:20:28.602Z,100551.25
2022-11-10T09:22:57.135Z,100562.69
2022-11-10T09:25:25.160Z,100552.41
2022-11-10T09:27:54.476Z,100558.13
2022-11-10T09:30:22.705Z,100552.91
2022-11-10T09:32:55.229Z,100548.28
2022-11-10T09:35:23.471Z,100551.31
2022-11-10T09:37:51.664Z,100546.78
2022-11-10T09:40:24.017Z,100544.50
2022-11-10T09:42:58.865Z,100531.72
2022-11-10T09:45:32.801Z,100545.25
2022-11-10T09:48:08.323Z,100542.78
2022-11-10T09:50:41.344Z,100542.13
2022-11-10T09:53:17.281Z,100537.78
2022-11-10T09:55:49.622Z,100540.75
2022-11-10T09:58:21.249Z,100532.75
2022-11-10T10:00:53.689Z,100540.75
2022-11-10T10:03:31.254Z,100544.22
2022-11-10T10:06:08.241Z,100537.38
2022-11-10T10:09:00.219Z,100532.94
2022-11-10T10:11:40.183Z,100532.91
2022-11-10T10:14:25.037Z,100525.53
2022-11-10T10:17:01.546Z,100527.78
2022-11-10T10:19:38.843Z,100513.31
2022-11-10T10:22:26.987Z,100505.56
2022-11-10T10:25:00.360Z,100507.78
2022-11-10T10:27:30.977Z,100506.09
2022-11-10T10:30:00.296Z,100504.78
2022-11-10T10:32:28.395Z,100499.75
2022-11-10T10:34:57.571Z,100504.16
2022-11-10T10:37:27.661Z,100500.81
2022-11-10T10:39:56.713Z,100488.63
2022-11-10T10:42:32.195Z,100488.34
2022-11-10T10:45:23.877Z,100480.19
2022-11-10T10:47:53.735Z,100484.81
2022-11-10T10:50:29.190Z,100469.28
2022-11-10T10:53:13.994Z,100490.94
2022-11-10T10:55:48.460Z,100480.06
2022-11-10T10:58:28.338Z,100483.78
2022-11-10T11:01:05.366Z,100475.19
2022-11-10T11:03:41.998Z,100470.75
2022-11-10T11:06:21.172Z,100467.75
2022-11-10T11:09:01.128Z,100465.34
2022-11-10T11:11:31.743Z,100467.06
2022-11-10T11:14:19.698Z,100476.59
2022-11-10T11:16:51.151Z,100468.41
2022-11-10T11:19:21.439Z,100459.66
2022-11-10T11:22:03.603Z,100468.34
2022-11-10T11:24:38.958Z,100455.66
2022-11-10T11:27:18.098Z,100465.22
2022-11-10T11:30:04.100Z,100450.88
2022-11-10T11:32:51.363Z,100458.44
2022-11-10T11:35:26.677Z,100462.59
2022-11-10T11:38:04.620Z,100447.00
2022-11-10T11:40:42.802Z,100445.69
2022-11-10T11:43:28.316Z,100445.41
2022-11-10T11:46:00.920Z,100441.63
2022-11-10T11:48:44.411Z,100439.69
2022-11-10T11:51:19.452Z,100446.34
2022-11-10T11:54:04.396Z,100443.31
2022-11-10T11:56:34.569Z,100441.53
2022-11-10T11:59:17.452Z,100439.56
2022-11-10T12:02:02.740Z,100446.94
2022-11-10T12:04:51.133Z,100443.19
2022-11-10T12:07:31.877Z,100440.66
2022-11-10T12:10:16.308Z,100446.19
2022-11-10T12:13:15.026Z,100438.53
2022-11-10T12:15:51.504Z,100441.66
2022-11-10T12:18:31.523Z,100438.44
2022-11-10T12:21:16.694Z,100444.69
2022-11-10T12:24:03.847Z,100445.59
2022-11-10T12:26:43.424Z,100444.97
2022-11-10T12:29:23.079Z,100437.97
2022-11-10T12:31:56.499Z,100436.91
2022-11-10T12:34:33.014Z,100436.56
2022-11-10T12:37:06.782Z,100418.66
2022-11-10T12:39:46.686Z,100432.47
2022-11-10T12:42:19.276Z,100442.44
2022-11-10T12:44:59.522Z,100441.69
2022-11-10T12:47:32.552Z,100434.72
2022-11-10T12:50:18.903Z,100432.63
2022-11-10T12:52:54.634Z,100435.91
2022-11-10T12:55:31.623Z,100442.44
2022-11-10T12:58:01.475Z,100453.09
2022-11-10T13:00:32.549Z,100443.53
2022-11-10T13:03:01.050Z,100436.94
2022-11-10T13:05:35.380Z,100450.56
2022-11-10T13:08:27.232Z,100444.66
2022-11-10T13:11:06.814Z,100446.94
2022-11-10T13:13:47.949Z,100443.25
2022-11-10T13:16:51.930Z,100446.19
2022-11-10T13:19:49.285Z,100445.53
2022-11-10T13:22:34.006Z,100453.91
2022-11-10T13:25:54.606Z,100453.22
2022-11-10T13:28:58.856Z,100457.81
2022-11-10T13:31:51.856Z,100462.59
2022-11-10T13:34:44.212Z,100462.59
2022-11-10T13:37:50.397Z,100457.75
2022-11-10T13:40:41.101Z,100467.91
2022-11-10T13:43:23.608Z,100463.72
2022-11-10T13:46:01.667Z,100466.06
2022-11-10T13:48:40.225Z,100464.09
2022-11-10T13:51:19.261Z,100467.88
2022-11-10T13:53:56.940Z,100471.50
2022-11-10T13:56:40.767Z,100470.94
2022-11-10T13:59:18.800Z,100475.94
2022-11-10T14:01:48.390Z,100476.50
2022-11-10T14:04:40.421Z,100477.91
2022-11-10T14:07:17.193Z,100479.72
2022-11-10T14:09:47.810Z,100487.25
2022-11-10T14:12:24.402Z,100476.66
2022-11-10T14:14:57.846Z,100483.47
2022-11-10T14:17:29.531Z,100484.44
2022-11-10T14:19:57.517Z,100436.66
2022-11-10T14:22:31.044Z,100487.91
2022-11-10T14:25:03.726Z,100487.66
2022-11-10T14:27:34.790Z,100486.28
2022-11-10T14:30:22.040Z,100488.75
2022-11-10T14:32:59.337Z,100486.00
2022-11-10T14:35:30.128Z,100480.84
2022-11-10T14:38:01.772Z,100484.44
2022-11-10T14:40:30.796Z,100482.25
2022-11-10T14:42:59.943Z,100483.63
2022-11-10T14:45:29.418Z,100482.78
2022-11-10T14:48:01.042Z,100491.53
2022-11-10T14:50:31.820Z,100485.56
2022-11-10T14:53:04.162Z,100471.09
2022-11-10T14:55:35.419Z,100480.69
2022-11-10T14:58:08.826Z,100475.25
2022-11-10T15:00:39.669Z,100491.22
2022-11-10T15:03:10.411Z,100486.91
2022-11-10T15:05:38.429Z,100490.66
2022-11-10T15:08:07.321Z,100480.91
2022-11-10T15:10:46.743Z,100500.06
2022-11-10T15:13:34.667Z,100503.81
2022-11-10T15:16:27.581Z,100500.63
2022-11-10T15:18:58.169Z,100502.84
2022-11-10T15:21:30.739Z,100495.59
2022-11-10T15:24:03.239Z,100500.59
2022-11-10T15:26:38.836Z,100503.75
2022-11-10T15:29:07.462Z,100511.09
2022-11-10T15:31:36.698Z,100513.53
2022-11-10T15:34:06.645Z,100516.13
2022-11-10T15:36:39.562Z,100515.41
2022-11-10T15:39:20.083Z,100526.16
2022-11-10T15:41:49.552Z,100528.53
2022-11-10T15:44:20.405Z,100523.41
2022-11-10T15:46:52.060Z,100526.16
2022-11-10T15:49:26.225Z,100532.56
2022-11-10T15:51:58.609Z,100534.53
2022-11-10T15:54:30.295Z,100532.41
2022-11-10T15:56:58.198Z,100535.56
2022-11-10T15:59:26.134Z,100537.06
2022-11-10T16:01:54.305Z,100528.44
2022-11-10T16:04:23.620Z,100534.72
2022-11-10T16:06:51.503Z,100542.50
2022-11-10T16:09:19.529Z,100546.59
2022-11-10T16:11:47.482Z,100541.06
2022-11-10T16:14:17.973Z,100534.22
2022-11-10T16:16:46.149Z,100541.56
2022-11-10T16:19:14.227Z,100555.28
2022-11-10T16:21:43.829Z,100559.38
2022-11-10T16:24:11.747Z,100557.47
2022-11-10T16:26:39.805Z,100564.03
2022-11-10T16:29:12.568Z,100564.09
2022-11-10T16:31:40.641Z,100558.56
2022-11-10T16:34:13.615Z,100566.78
2022-11-10T16:36:46.230Z,100552.72
2022-11-10T16:39:16.384Z,100544.34
2022-11-10T16:41:44.611Z,100559.06
2022-11-10T16:44:13.794Z,100565.88
2022-11-10T16:46:43.206Z,100570.28
2022-11-10T16:49:24.202Z,100571.63
2022-11-10T16:51:53.574Z,100569.84
2022-11-10T16:54:21.561Z,100566.13
2022-11-10T16:56:49.506Z,100574.00
2022-11-10T16:59:17.539Z,100581.56
2022-11-10T17:01:47.603Z,100585.88
2022-11-10T17:04:16.047Z,100589.94
2022-11-10T17:06:44.383Z,100598.97
2022-11-10T17:09:18.890Z,100593.16
2022-11-10T17:11:47.015Z,100598.66
2022-11-10T17:14:16.601Z,100598.03
2022-11-10T17:16:46.653Z,100607.72
2022-11-10T17:19:20.663Z,100603.88
2022-11-10T17:21:49.665Z,100597.06
2022-11-10T17:24:19.402Z,100607.81
2022-11-10T17:26:48.675Z,100609.72
2022-11-10T17:29:18.817Z,100611.88
2022-11-10T17:31:46.943Z,100604.56
2022-11-10T17:34:14.777Z,100603.94
2022-11-10T17:36:42.997Z,100611.34
2022-11-10T17:39:13.831Z,100604.63
2022-11-10T17:41:43.239Z,100621.59
2022-11-10T17:44:14.118Z,100618.56
2022-11-10T17:46:42.053Z,100616.50
2022-11-10T17:49:10.142Z,100624.84
2022-11-10T17:51:38.344Z,100614.28
2022-11-10T17:54:10.056Z,100616.91
2022-11-10T17:56:38.076Z,100620.28
2022-11-10T17:59:07.353Z,100624.78
2022-11-10T18:01:35.377Z,100627.84
2022-11-10T18:04:03.329Z,100628.06
2022-11-10T18:06:32.444Z,100631.16
2022-11-10T18:09:00.709Z,100630.06
2022-11-10T18:11:28.686Z,100629.31
2022-11-10T18:13:56.731Z,100631.19
2022-11-10T18:16:27.293Z,100635.50
2022-11-10T18:18:55.203Z,100633.81
2022-11-10T18:21:23.138Z,100634.44
2022-11-10T18:23:51.115Z,100632.28
2022-11-10T18:26:18.978Z,100637.31
2022-11-10T18:28:48.672Z,100639.75
2022-11-10T18:31:17.701Z,100625.81
2022-11-10T18:33:47.028Z,100652.69
2022-11-10T18:36:15.075Z,100637.69
2022-11-10T18:38:42.997Z,100656.78
2022-11-10T18:41:24.999Z,100659.47
2022-11-10T18:43:53.115Z,100661.50
2022-11-10T18:46:21.492Z,100628.78
2022-11-10T18:48:50.797Z,100669.97
2022-11-10T18:51:19.487Z,100668.03
2022-11-10T18:53:47.396Z,100680.84
2022-11-10T18:56:15.343Z,100680.75
2022-11-10T18:58:43.804Z,100685.78
2022-11-10T19:01:12.722Z,100662.44
2022-11-10T19:03:42.774Z,100682.53
2022-11-10T19:06:13.583Z,100684.59
2022-11-10T19:08:41.855Z,100668.78
2022-11-10T19:11:10.761Z,100686.16
2022-11-10T19:13:39.088Z,100693.00
2022-11-10T19:16:08.426Z,100701.31
2022-11-10T19:18:38.568Z,100697.03
2022-11-10T19:21:06.938Z,100700.94
2022-11-10T19:23:36.832Z,100700.91
2022-11-10T19:26:07.027Z,100701.78
2022-11-10T19:28:37.453Z,100707.28
2022-11-10T19:31:07.143Z,100703.25
2022-11-10T19:33:38.083Z,100715.59
2022-11-10T19:36:09.264Z,100705.22
2022-11-10T19:38:38.843Z,100710.84
2022-11-10T19:41:08.659Z,100697.84
2022-11-10T19:43:36.937Z,100710.47
2022-11-10T19:46:05.973Z,100710.44
2022-11-10T19:48:34.514Z,100707.75
2022-11-10T19:51:04.697Z,100710.25
2022-11-10T19:53:33.117Z,100709.59
2022-11-10T19:56:03.854Z,100711.06
2022-11-10T19:58:32.157Z,100717.09
2022-11-10T20:01:02.012Z,100725.38
2022-11-10T20:03:30.121Z,100719.78
2022-11-10T20:06:02.622Z,100717.53
2022-11-10T20:08:31.068Z,100725.75
2022-11-10T20:11:05.121Z,100720.06
2022-11-10T20:13:33.198Z,100726.50
2022-11-10T20:16:04.912Z,100727.09
2022-11-10T20:18:34.617Z,100727.63
2022-11-10T20:21:05.971Z,100724.19
2022-11-10T20:23:34.407Z,100728.41
2022-11-10T20:26:05.857Z,100734.13
2022-11-10T20:28:35.913Z,100733.56
2022-11-10T20:31:06.515Z,100735.84
2022-11-10T20:33:35.102Z,100740.59
2022-11-10T20:36:08.702Z,100736.66
2022-11-10T20:38:37.529Z,100729.03
2022-11-10T20:41:09.260Z,100737.69
2022-11-10T20:43:39.208Z,100723.06
2022-11-10T20:46:08.910Z,100721.97
2022-11-10T20:48:36.938Z,100737.34
2022-11-10T20:51:10.647Z,100701.84
2022-11-10T20:53:39.352Z,100735.44
2022-11-10T20:56:09.363Z,100752.19
2022-11-10T20:58:37.247Z,100743.25
2022-11-10T21:01:07.150Z,100746.03
2022-11-10T21:03:35.626Z,100756.31
2022-11-10T21:06:04.823Z,100735.44
2022-11-10T21:08:33.203Z,100753.69
2022-11-10T21:11:05.900Z,100751.16
2022-11-10T21:13:34.690Z,100755.63
2022-11-10T21:16:04.824Z,100753.34
2022-11-10T21:18:34.595Z,100758.59
2022-11-10T21:21:02.629Z,100754.13
2022-11-10T21:23:30.558Z,100759.59
2022-11-10T21:26:00.211Z,100745.53
2022-11-10T21:28:28.546Z,100756.91
2022-11-10T21:31:06.293Z,100763.13
2022-11-10T21:33:34.310Z,100761.38
2022-11-10T21:36:07.057Z,100759.34
2022-11-10T21:38:35.991Z,100765.09
2022-11-10T21:41:04.121Z,100766.44
2022-11-10T21:43:32.195Z,100768.41
2022-11-10T21:46:02.317Z,100751.31
2022-11-10T21:48:31.624Z,100760.44
2022-11-10T21:51:01.057Z,100758.84
2022-11-10T21:53:29.283Z,100753.47
2022-11-10T21:56:00.879Z,100755.78
2022-11-10T21:58:29.319Z,100766.50
2022-11-10T22:01:02.201Z,100772.63
2022-11-10T22:03:31.909Z,100768.34
2022-11-10T22:06:04.633Z,100764.53
2022-11-10T22:08:32.557Z,100777.66
2022-11-10T22:11:18.086Z,100767.13
2022-11-10T22:14:03.553Z,100770.28
2022-11-10T22:16:53.328Z,100777.88
2022-11-10T22:19:22.564Z,100773.88
2022-11-10T22:21:50.604Z,100776.03
2022-11-10T22:24:24.414Z,100778.53
2022-11-10T22:26:52.328Z,100775.00
2022-11-10T22:29:20.483Z,100772.81
2022-11-10T22:31:48.571Z,100778.28
2022-11-10T22:34:16.706Z,100780.66
2022-11-10T22:36:46.525Z,100778.34
2022-11-10T22:39:14.442Z,100776.41
2022-11-10T22:42:14.405Z,100777.25
2022-11-10T22:44:42.372Z,100778.72
2022-11-10T22:47:10.244Z,100768.47
2022-11-10T22:49:38.232Z,100776.53
2022-11-10T22:52:07.614Z,100779.00
2022-11-10T22:54:35.504Z,100780.91
2022-11-10T22:57:03.450Z,100768.66
2022-11-10T22:59:31.419Z,100772.34
2022-11-10T23:01:59.379Z,100779.97
2022-11-10T23:04:27.310Z,100783.88
2022-11-10T23:06:55.462Z,100783.78
2022-11-10T23:09:24.862Z,100780.41
2022-11-10T23:11:52.799Z,100790.66
2022-11-10T23:14:20.732Z,100781.56
2022-11-10T23:16:48.655Z,100784.03
2022-11-10T23:19:16.681Z,100779.97
2022-11-10T23:21:44.603Z,100782.53
2022-11-10T23:24:13.555Z,100779.94
2022-11-10T23:26:42.899Z,100771.34
2022-11-10T23:29:10.762Z,100771.28
2022-11-10T23:31:38.716Z,100777.53
2022-11-10T23:34:06.987Z,100771.56
2022-11-10T23:36:34.953Z,100758.53
2022-11-10T23:39:02.921Z,100776.66
2022-11-10T23:41:30.995Z,100782.00
2022-11-10T23:44:00.525Z,100782.25
2022-11-10T23:46:28.469Z,100779.41
2022-11-10T23:48:56.433Z,100788.59
2022-11-10T23:51:25.518Z,100789.03
2022-11-10T23:53:53.429Z,100784.44
2022-11-10T23:56:21.363Z,100790.56
2022-11-10T23:58:49.395Z,100768.19
